This is the latest recevied weather packets stored in our database for station/object KG7QQL. If no packets are shown the sender has not sent any weather packets the latest 10 day(s).
| Time | Temp. | Humidity | Pressure | Rain* | Wind** | Luminosity | Snow |
|---|---|---|---|---|---|---|---|
| 1777617845 | 12.22° C | 89% | - | 0 mm | - | - | - |
| 1777617539 | 12.78° C | 88% | - | 0 mm | - | - | - |
| 1777617236 | 12.22° C | 88% | - | 0 mm | - | - | - |
| 1777616934 | 12.22° C | 88% | - | 0 mm | - | - | - |
| 1777616629 | 12.78° C | 88% | - | 0 mm | - | - | - |
| 1777616324 | 12.78° C | 88% | - | 0 mm | - | - | - |
| 1777616021 | 12.78° C | 87% | - | 0 mm | - | - | - |
| 1777615718 | 12.78° C | 86% | - | 0 mm | - | - | - |
| 1777615415 | 13.33° C | 85% | - | 0 mm | - | - | - |
| 1777615114 | 13.33° C | 85% | - | 0 mm | - | - | - |
| 1777614810 | 13.33° C | 84% | - | 0 mm | - | - | - |
| 1777614507 | 13.89° C | 83% | - | 0 mm | - | - | - |
| 1777614202 | 13.89° C | 81% | - | 0 mm | - | - | - |
| 1777613897 | 14.44° C | 78% | - | 0 mm | - | - | - |
| 1777613594 | 14.44° C | 79% | - | 0 mm | - | - | - |
| 1777613291 | 14.44° C | 79% | - | 0 mm | - | - | - |
| 1777612988 | 15° C | 77% | - | 0 mm | - | - | - |
| 1777612684 | 15.56° C | 72% | - | 0 mm | - | - | - |
| 1777612380 | 15.56° C | 72% | - | 0 mm | - | - | - |
| 1777612074 | 16.11° C | 71% | - | 0 mm | - | - | - |
| 1777611770 | 16.11° C | 71% | - | 0 mm | - | - | - |
| 1777611467 | 16.11° C | 71% | - | 0 mm | - | - | - |
| 1777611164 | 15.56° C | 74% | - | 0 mm | - | - | - |
| 1777610864 | 15.56° C | 75% | - | 0 mm | - | - | - |
| 1777610560 | 15.56° C | 74% | - | 0 mm | - | - | - |
* Rain latest hour (hover to see other rain measurements)
** Current wind speed in m/s (hover to see current wind gust speed)